createdAt,value
2023-11-26T00:02:43.110Z,3.10
2023-11-26T00:07:45.244Z,3.30
2023-11-26T00:12:48.340Z,3.30
2023-11-26T00:17:50.800Z,3.30
2023-11-26T00:22:53.110Z,3.40
2023-11-26T00:27:56.288Z,3.40
2023-11-26T00:32:58.276Z,3.20
2023-11-26T00:38:00.301Z,3.20
2023-11-26T00:43:03.848Z,3.20
2023-11-26T00:48:07.034Z,3.40
2023-11-26T00:53:09.236Z,3.40
2023-11-26T00:58:13.138Z,3.30
2023-11-26T01:03:15.208Z,3.30
2023-11-26T01:08:17.855Z,3.20
2023-11-26T01:13:21.271Z,3.20
2023-11-26T01:18:23.321Z,3.20
2023-11-26T01:23:25.300Z,3.50
2023-11-26T01:28:28.653Z,3.40
2023-11-26T01:33:30.829Z,3.40
2023-11-26T01:38:32.860Z,3.30
2023-11-26T01:43:36.703Z,3.50
2023-11-26T01:48:39.588Z,3.40
2023-11-26T01:53:46.911Z,3.60
2023-11-26T01:58:50.298Z,3.40
2023-11-26T02:03:52.462Z,3.40
2023-11-26T02:08:54.861Z,3.50
2023-11-26T02:13:58.396Z,3.50
2023-11-26T02:19:01.551Z,3.50
2023-11-26T02:24:03.349Z,3.50
2023-11-26T02:29:08.592Z,3.50
2023-11-26T02:34:10.576Z,3.50
2023-11-26T02:39:12.685Z,3.60
2023-11-26T02:44:15.957Z,3.60
2023-11-26T02:49:18.036Z,3.60
2023-11-26T02:54:20.890Z,3.60
2023-11-26T02:59:24.382Z,3.50
2023-11-26T03:04:28.400Z,3.50
2023-11-26T03:10:00.461Z,3.40
2023-11-26T03:15:05.777Z,3.30
2023-11-26T03:20:10.031Z,3.20
2023-11-26T03:25:11.887Z,3.10
2023-11-26T03:30:15.205Z,3.10
2023-11-26T03:35:17.941Z,3.20
2023-11-26T03:40:20.457Z,3.10
2023-11-26T03:45:23.899Z,3.10
2023-11-26T03:50:26.230Z,3.30
2023-11-26T03:55:28.914Z,3.50
2023-11-26T04:00:32.414Z,3.50
2023-11-26T04:05:34.528Z,3.40
2023-11-26T04:10:41.053Z,3.50
2023-11-26T04:15:47.738Z,3.50
2023-11-26T04:20:49.986Z,3.40
2023-11-26T04:25:51.930Z,3.40
2023-11-26T04:30:55.461Z,3.40
2023-11-26T04:35:57.526Z,3.40
2023-11-26T04:40:59.402Z,3.30
2023-11-26T04:46:03.739Z,3.30
2023-11-26T04:51:05.549Z,3.20
2023-11-26T04:56:08.086Z,3.20
2023-11-26T05:01:12.021Z,3.20
2023-11-26T05:06:14.831Z,3.30
2023-11-26T05:11:18.105Z,3.40
2023-11-26T05:16:21.832Z,3.40
2023-11-26T05:21:23.727Z,3.50
2023-11-26T05:26:27.947Z,3.60
2023-11-26T05:31:31.364Z,3.70
2023-11-26T05:36:33.325Z,3.50
2023-11-26T05:41:35.678Z,3.50
2023-11-26T05:46:39.001Z,3.50
2023-11-26T05:51:41.051Z,3.40
2023-11-26T05:56:46.168Z,3.40
2023-11-26T06:01:49.450Z,3.40
2023-11-26T06:06:51.669Z,3.60
2023-11-26T06:11:54.062Z,3.60
2023-11-26T06:16:57.423Z,3.60
2023-11-26T06:21:59.434Z,3.50
2023-11-26T06:27:01.750Z,3.60
2023-11-26T06:32:05.862Z,3.60
2023-11-26T06:37:07.915Z,3.60
2023-11-26T06:42:11.431Z,3.60
2023-11-26T06:47:14.990Z,3.70
2023-11-26T06:52:16.723Z,3.70
2023-11-26T06:57:18.689Z,3.70
2023-11-26T07:02:22.076Z,3.70
2023-11-26T07:07:24.094Z,3.60
2023-11-26T07:12:27.589Z,3.60
2023-11-26T07:17:31.259Z,3.60
2023-11-26T07:22:33.431Z,3.60
2023-11-26T07:27:35.355Z,3.60
2023-11-26T07:32:39.101Z,3.70
2023-11-26T07:37:40.983Z,3.80
2023-11-26T07:42:43.213Z,3.80
2023-11-26T07:47:46.959Z,3.90
2023-11-26T07:52:49.429Z,4.00
2023-11-26T07:57:52.816Z,4.00
2023-11-26T08:02:56.387Z,4.00
2023-11-26T08:07:58.475Z,4.10
2023-11-26T08:13:00.677Z,5.60
2023-11-26T08:18:06.927Z,4.70
2023-11-26T08:23:09.021Z,4.40
2023-11-26T08:28:12.462Z,4.30
2023-11-26T08:33:18.733Z,4.10
2023-11-26T08:38:21.979Z,4.20
2023-11-26T08:43:24.054Z,4.40
2023-11-26T08:48:27.293Z,4.50
2023-11-26T08:53:30.305Z,4.70
2023-11-26T08:58:32.062Z,4.70
2023-11-26T09:03:38.129Z,4.80
2023-11-26T09:08:40.350Z,4.90
2023-11-26T09:13:42.077Z,4.70
2023-11-26T09:18:45.661Z,4.60
2023-11-26T09:23:47.858Z,4.80
2023-11-26T09:28:56.777Z,5.20
2023-11-26T09:34:02.185Z,5.60
2023-11-26T09:39:05.252Z,5.90
2023-11-26T09:44:08.627Z,6.00
2023-11-26T09:49:12.002Z,5.80
2023-11-26T09:54:16.134Z,6.10
2023-11-26T09:59:26.831Z,6.10
2023-11-26T10:04:30.524Z,5.80
2023-11-26T10:09:32.612Z,6.20
2023-11-26T10:14:34.517Z,6.40
2023-11-26T10:19:37.939Z,6.00
2023-11-26T10:24:39.924Z,6.80
2023-11-26T10:29:44.573Z,7.30
2023-11-26T10:34:57.390Z,7.60
2023-11-26T10:39:59.826Z,7.70
2023-11-26T10:45:02.291Z,8.10
2023-11-26T10:50:10.801Z,9.50
2023-11-26T10:55:20.069Z,12.20
2023-11-26T11:00:23.837Z,11.70
2023-11-26T11:05:28.134Z,10.50
2023-11-26T11:10:39.744Z,9.20
2023-11-26T11:15:42.894Z,8.60
2023-11-26T11:21:10.623Z,8.60
2023-11-26T11:26:13.877Z,8.50
2023-11-26T11:31:16.637Z,8.10
2023-11-26T11:36:54.391Z,7.90
2023-11-26T11:42:14.012Z,7.70
2023-11-26T11:47:44.581Z,7.30
2023-11-26T11:52:56.402Z,6.80
2023-11-26T11:58:11.868Z,6.60
2023-11-26T12:03:18.586Z,6.60
2023-11-26T12:08:21.123Z,6.30
2023-11-26T12:13:25.178Z,6.00
2023-11-26T12:18:27.494Z,5.60
2023-11-26T12:23:36.804Z,5.50
2023-11-26T12:28:45.319Z,5.30
2023-11-26T12:33:48.587Z,5.10
2023-11-26T12:38:51.309Z,5.00
2023-11-26T12:43:57.835Z,5.00
2023-11-26T12:49:01.823Z,5.20
2023-11-26T12:54:04.116Z,5.40
2023-11-26T12:59:07.961Z,5.60
2023-11-26T13:04:10.064Z,5.90
2023-11-26T13:09:14.193Z,6.20
2023-11-26T13:14:21.813Z,6.30
2023-11-26T13:19:24.382Z,6.40
2023-11-26T13:24:26.579Z,6.70
2023-11-26T13:29:30.133Z,6.90
2023-11-26T13:34:34.473Z,6.70
2023-11-26T13:39:38.053Z,6.80
2023-11-26T13:44:41.841Z,7.10
2023-11-26T13:49:44.216Z,7.40
2023-11-26T13:54:46.260Z,8.30
2023-11-26T13:59:52.445Z,8.40
2023-11-26T14:04:54.645Z,8.30
2023-11-26T14:09:57.395Z,8.20
2023-11-26T14:15:01.366Z,8.30
2023-11-26T14:20:05.782Z,8.00
2023-11-26T14:25:08.983Z,7.60
2023-11-26T14:30:16.192Z,7.50
2023-11-26T14:35:19.811Z,7.00
2023-11-26T14:40:23.030Z,6.80
2023-11-26T14:45:27.811Z,6.40
2023-11-26T14:50:30.301Z,6.20
2023-11-26T14:55:32.138Z,5.80
2023-11-26T15:00:36.219Z,5.40
2023-11-26T15:05:38.373Z,5.10
2023-11-26T15:10:40.142Z,4.90
2023-11-26T15:15:44.233Z,4.70
2023-11-26T15:20:47.749Z,4.60
2023-11-26T15:25:50.096Z,4.20
2023-11-26T15:30:53.853Z,3.90
2023-11-26T15:35:55.977Z,3.60
2023-11-26T15:40:58.070Z,3.40
2023-11-26T15:46:01.423Z,3.30
2023-11-26T15:51:11.579Z,3.20
2023-11-26T15:56:18.122Z,3.50
2023-11-26T16:01:21.882Z,3.30
2023-11-26T16:06:24.158Z,3.10
2023-11-26T16:11:27.361Z,2.90
2023-11-26T16:16:31.552Z,2.60
2023-11-26T16:21:34.945Z,2.40
2023-11-26T16:26:42.319Z,2.30
2023-11-26T16:31:46.415Z,2.50
2023-11-26T16:36:49.823Z,2.70
2023-11-26T16:41:55.168Z,2.70
2023-11-26T16:46:59.262Z,2.40
2023-11-26T16:52:01.914Z,2.60
2023-11-26T16:57:04.771Z,2.80
2023-11-26T17:02:10.733Z,2.60
2023-11-26T17:07:15.557Z,2.50
2023-11-26T17:12:20.264Z,2.30
2023-11-26T17:17:27.156Z,2.30
2023-11-26T17:22:31.371Z,2.20
2023-11-26T17:27:35.869Z,2.30
2023-11-26T17:32:41.920Z,2.30
2023-11-26T17:37:45.774Z,2.20
2023-11-26T17:42:50.404Z,2.00
2023-11-26T17:47:56.699Z,2.00
2023-11-26T17:53:07.700Z,2.00
2023-11-26T17:58:16.040Z,1.80
2023-11-26T18:03:23.241Z,2.20
2023-11-26T18:08:28.445Z,2.40
2023-11-26T18:13:33.752Z,2.20
2023-11-26T18:18:40.663Z,2.00
2023-11-26T18:23:45.956Z,1.90
2023-11-26T18:28:51.559Z,2.10
2023-11-26T18:33:58.689Z,2.00
2023-11-26T18:39:04.135Z,1.40
2023-11-26T18:44:09.657Z,1.40
2023-11-26T18:49:16.695Z,1.20
2023-11-26T18:54:23.497Z,0.90
2023-11-26T18:59:29.002Z,0.60
2023-11-26T19:04:36.186Z,0.60
2023-11-26T19:09:45.311Z,0.70
2023-11-26T19:14:50.248Z,0.70
2023-11-26T19:19:57.326Z,0.60
2023-11-26T19:25:18.321Z,1.00
2023-11-26T19:30:43.891Z,1.60
2023-11-26T19:36:06.261Z,1.80
2023-11-26T19:41:12.443Z,2.10
2023-11-26T19:46:19.648Z,2.30
2023-11-26T19:51:32.642Z,2.10
2023-11-26T19:56:43.065Z,1.80
2023-11-26T20:01:51.638Z,1.90
2023-11-26T20:06:59.027Z,2.00
2023-11-26T20:12:06.102Z,2.10
2023-11-26T20:17:11.655Z,1.90
2023-11-26T20:22:19.562Z,1.90
2023-11-26T20:27:24.988Z,1.80
2023-11-26T20:32:30.745Z,1.70
2023-11-26T20:37:37.908Z,1.70
2023-11-26T20:42:42.902Z,1.70
2023-11-26T20:47:47.948Z,1.70
2023-11-26T20:52:55.079Z,1.70
2023-11-26T20:57:58.383Z,1.60
2023-11-26T21:03:00.759Z,1.60
2023-11-26T21:08:10.566Z,1.50
2023-11-26T21:13:12.895Z,1.70
2023-11-26T21:18:15.523Z,1.80
2023-11-26T21:23:19.033Z,1.90
2023-11-26T21:28:21.548Z,1.90
2023-11-26T21:33:23.754Z,1.80
2023-11-26T21:38:28.819Z,1.80
2023-11-26T21:43:31.433Z,1.70
2023-11-26T21:48:34.030Z,1.80
2023-11-26T21:53:37.327Z,1.80
2023-11-26T21:58:40.503Z,1.80
2023-11-26T22:03:42.747Z,1.50
2023-11-26T22:08:46.405Z,1.50
2023-11-26T22:13:49.059Z,1.50
2023-11-26T22:18:51.296Z,1.40
2023-11-26T22:23:54.890Z,1.30
2023-11-26T22:28:56.740Z,1.20
2023-11-26T22:33:58.765Z,1.20
2023-11-26T22:39:02.670Z,1.20
2023-11-26T22:44:04.934Z,1.20
2023-11-26T22:49:06.753Z,1.30
2023-11-26T22:54:10.810Z,1.30
2023-11-26T22:59:12.737Z,1.20
2023-11-26T23:04:14.958Z,1.30
2023-11-26T23:09:18.905Z,1.30
2023-11-26T23:14:22.715Z,1.40
2023-11-26T23:19:24.711Z,1.20
2023-11-26T23:24:28.419Z,1.30
2023-11-26T23:29:30.371Z,1.40
2023-11-26T23:34:32.352Z,1.30
2023-11-26T23:39:36.072Z,1.30
2023-11-26T23:44:38.217Z,1.30
2023-11-26T23:49:40.349Z,1.30
2023-11-26T23:54:44.442Z,1.40
2023-11-26T23:59:46.660Z,1.30
